CPX16 Details

Departure: Liège Airport (EBLG)
Arrival: Miami International Airport (KMIA)


Current Weather Information
EBLG 260120Z 21009KT CAVOK 09/06 Q1010 NOSIG
KMIA 260053Z 14008KT 100V160 10SM FEW040 FEW140 BKN250 26/20 A2998 RMK AO2 SLP153 T02560200